Osseo, Wisconsin
Current Conditions -  °F | °C
As of 6:56 AM on Friday 24 Oct 2014 (Local Time) from KEAU Reporting Station
Overcast Overcast  
Wind Chill: 46°   Ceiling: 400
Heat Index: 49°   Visibility: 7mi
Dew Point: 48°   Wind: 7mph
Humidity: 97%   Direction: 180°S
Pressure: 29.97"   Gusts: NA
Location:  44.57°N, 91.23°W
Report Text: KEAU 241156Z 18006KT 7SM OVC004 09/09 A2997 RMK AO2 SLP151 70017 T00940089 10100 20094 58009
Loading
Personal Weather Stations






























Interactive Weather Map
Tropical Storm Tracking
New forecast layout! Learn more

10-Day Weather Forecast

Advertisements
Track Severe Weather on mobile